Time;durP1;ratioP1;P1;durP2;ratioP2;P2;SDS_P1;SDS_P2;PMS_P1;PMS_P2;Temp;Humidity;BMP_temperature;BMP_pressure;BME280_temperature;BME280_humidity;BME280_pressure;Samples;Min_cycle;Max_cycle;Signal;HPM_P1;HPM_P2
2021/12/08 00:00:47;;;;;;;5.88;4.28;;;1.70;99.90;;;;;;6069090;23;20007;-78
2021/12/08 00:03:14;;;;;;;6.20;3.92;;;1.80;99.90;;;;;;6094283;23;20520;-78
2021/12/08 00:05:41;;;;;;;8.57;4.03;;;1.80;99.90;;;;;;6094291;23;20486;-78
2021/12/08 00:08:09;;;;;;;7.13;3.42;;;1.80;99.90;;;;;;6094402;23;20007;-78
2021/12/08 00:13:07;;;;;;;10.05;3.88;;;1.80;99.90;;;;;;6096705;23;20007;-78
2021/12/08 00:15:42;;;;;;;9.00;3.90;;;1.80;99.90;;;;;;6094568;23;20330;-78
2021/12/08 00:18:12;;;;;;;7.43;3.90;;;1.80;99.90;;;;;;6094576;23;20006;-78
2021/12/08 00:20:40;;;;;;;6.03;3.75;;;1.80;99.90;;;;;;6091667;23;20016;-77
2021/12/08 00:23:07;;;;;;;9.82;3.78;;;1.80;99.90;;;;;;6093032;23;20014;-78
2021/12/08 00:25:34;;;;;;;4.97;3.30;;;1.80;99.90;;;;;;6093308;23;20003;-77
2021/12/08 00:28:00;;;;;;;6.45;3.20;;;1.80;99.90;;;;;;6094512;23;20033;-77
2021/12/08 00:30:28;;;;;;;5.65;3.05;;;1.80;99.90;;;;;;6094350;23;20078;-77
2021/12/08 00:32:55;;;;;;;5.70;3.55;;;1.80;99.90;;;;;;6094025;23;20434;-77
2021/12/08 00:35:23;;;;;;;4.25;3.35;;;1.80;99.90;;;;;;6093764;23;20090;-77
2021/12/08 00:37:49;;;;;;;8.10;3.45;;;1.80;99.90;;;;;;6093872;23;20006;-77
2021/12/08 00:40:17;;;;;;;8.15;3.90;;;1.70;99.90;;;;;;6094204;23;20073;-77
2021/12/08 00:42:45;;;;;;;5.60;3.67;;;1.70;99.90;;;;;;6094043;23;20518;-77
2021/12/08 00:45:12;;;;;;;5.55;3.22;;;1.70;99.90;;;;;;6094285;23;20009;-77
2021/12/08 00:47:39;;;;;;;8.73;3.17;;;1.70;99.90;;;;;;6093943;23;20445;-77
2021/12/08 00:50:08;;;;;;;5.95;3.33;;;1.60;99.90;;;;;;6094226;23;20006;-77
2021/12/08 00:52:35;;;;;;;6.03;2.97;;;1.60;99.90;;;;;;6094105;23;20009;-77
2021/12/08 00:55:02;;;;;;;7.32;3.65;;;1.70;99.90;;;;;;6094067;23;20055;-77
2021/12/08 00:57:28;;;;;;;5.75;3.50;;;1.70;99.90;;;;;;6068712;23;20011;-77
2021/12/08 00:59:53;;;;;;;5.93;3.53;;;1.70;99.90;;;;;;6068818;23;20017;-76
2021/12/08 01:02:19;;;;;;;6.10;3.78;;;1.70;99.90;;;;;;6093519;23;19999;-77
2021/12/08 01:04:45;;;;;;;7.57;3.75;;;1.80;99.90;;;;;;6095972;23;20006;-78
2021/12/08 01:07:11;;;;;;;10.07;3.72;;;1.80;99.90;;;;;;6096133;23;20434;-77
2021/12/08 01:09:36;;;;;;;6.07;3.63;;;1.80;99.90;;;;;;6096386;23;20014;-77
2021/12/08 01:12:04;;;;;;;5.60;3.45;;;1.70;99.90;;;;;;6070594;23;20419;-75
2021/12/08 01:14:34;;;;;;;7.88;3.42;;;1.70;99.90;;;;;;6096127;23;20072;-77
2021/12/08 01:17:01;;;;;;;8.40;3.40;;;1.70;99.90;;;;;;6070376;23;20448;-77
2021/12/08 01:19:27;;;;;;;5.82;3.65;;;1.70;99.90;;;;;;6096234;23;20026;-77
2021/12/08 01:21:53;;;;;;;4.88;3.13;;;1.70;99.90;;;;;;6096131;23;20005;-77
2021/12/08 01:24:19;;;;;;;4.35;2.42;;;1.70;99.90;;;;;;6096214;23;20006;-79
2021/12/08 01:26:45;;;;;;;4.03;2.75;;;1.80;99.90;;;;;;6096061;23;20006;-77
2021/12/08 01:29:11;;;;;;;4.63;2.97;;;1.80;99.90;;;;;;6070434;23;20007;-77
2021/12/08 01:31:40;;;;;;;3.88;2.72;;;1.80;99.90;;;;;;6096450;23;20086;-77
2021/12/08 01:34:06;;;;;;;3.38;2.60;;;1.80;99.90;;;;;;6070106;23;20013;-77
2021/12/08 01:36:32;;;;;;;4.63;3.00;;;1.80;99.90;;;;;;6096364;23;20003;-78
2021/12/08 01:38:58;;;;;;;5.82;2.88;;;1.80;99.90;;;;;;6096085;23;20006;-78
2021/12/08 01:41:25;;;;;;;4.15;2.92;;;1.70;99.90;;;;;;6096242;23;20002;-78
2021/12/08 01:46:36;;;;;;;4.85;3.20;;;1.80;99.90;;;;;;6096036;23;20017;-78
2021/12/08 01:49:04;;;;;;;4.18;3.00;;;1.80;99.90;;;;;;6095649;23;20010;-77
2021/12/08 01:51:30;;;;;;;10.48;3.38;;;1.80;99.90;;;;;;6069976;23;20058;-77
2021/12/08 01:54:01;;;;;;;8.77;2.83;;;1.80;99.90;;;;;;6095381;23;20029;-78
2021/12/08 01:56:28;;;;;;;8.00;2.97;;;1.70;99.90;;;;;;6095695;23;20002;-77
2021/12/08 01:58:54;;;;;;;4.88;3.50;;;1.70;99.90;;;;;;6095998;23;20453;-78
2021/12/08 02:01:24;;;;;;;5.50;3.20;;;1.70;99.90;;;;;;6095721;23;20442;-78
2021/12/08 02:03:49;;;;;;;5.38;3.20;;;1.70;99.90;;;;;;6094765;23;20021;-78
2021/12/08 02:06:17;;;;;;;7.22;2.97;;;1.60;99.90;;;;;;6095194;23;20003;-77
2021/12/08 02:08:43;;;;;;;6.28;3.50;;;1.50;99.90;;;;;;6094924;23;20006;-77
2021/12/08 02:11:09;;;;;;;5.78;3.83;;;1.50;99.90;;;;;;6095644;23;20013;-77
2021/12/08 02:13:38;;;;;;;4.60;3.33;;;1.40;99.90;;;;;;6095000;23;19998;-77
2021/12/08 02:16:08;;;;;;;3.88;2.80;;;1.50;99.90;;;;;;6094918;23;20554;-77
2021/12/08 02:18:36;;;;;;;6.05;3.10;;;1.40;99.90;;;;;;6094953;23;20010;-77
2021/12/08 02:21:39;;;;;;;4.65;3.40;;;1.40;99.90;;;;;;6094849;23;20033;-77
2021/12/08 02:24:10;;;;;;;4.80;2.60;;;1.40;99.90;;;;;;6093650;23;20018;-78
2021/12/08 02:26:38;;;;;;;3.40;2.40;;;1.40;99.90;;;;;;6069010;23;20473;-77
2021/12/08 02:29:12;;;;;;;4.78;2.95;;;1.40;99.90;;;;;;6095287;23;20002;-77
2021/12/08 02:47:55;;;;;;;13.45;6.03;;;1.20;99.90;;;;;;6095239;23;20058;-77
2021/12/08 02:50:33;;;;;;;14.88;8.20;;;1.20;99.90;;;;;;6095263;23;20009;-77
2021/12/08 02:52:59;;;;;;;4.65;2.92;;;1.20;99.90;;;;;;6095032;23;20223;-77
2021/12/08 02:55:27;;;;;;;6.10;3.70;;;1.20;99.90;;;;;;6095038;23;20010;-77
2021/12/08 02:57:53;;;;;;;6.00;2.65;;;1.20;99.90;;;;;;6095139;23;20009;-76
2021/12/08 03:00:25;;;;;;;7.43;3.17;;;1.20;99.90;;;;;;6095388;23;20438;-77
2021/12/08 03:02:52;;;;;;;4.35;2.97;;;1.20;99.90;;;;;;6094623;23;20016;-77
2021/12/08 03:05:19;;;;;;;5.93;2.85;;;1.20;99.90;;;;;;6094767;23;20010;-77
2021/12/08 03:07:46;;;;;;;5.72;2.75;;;1.20;99.90;;;;;;6095375;23;20446;-77
2021/12/08 03:10:15;;;;;;;3.78;2.95;;;1.20;99.90;;;;;;6095169;23;20010;-77
2021/12/08 03:12:42;;;;;;;5.82;2.38;;;1.20;99.90;;;;;;6094505;23;19998;-77
2021/12/08 03:15:09;;;;;;;2.90;2.40;;;1.30;99.90;;;;;;6095027;23;20312;-78
2021/12/08 03:17:35;;;;;;;3.78;2.40;;;1.20;99.90;;;;;;6095035;23;20367;-78
2021/12/08 03:20:15;;;;;;;9.60;3.33;;;1.20;99.90;;;;;;6094886;23;20089;-78
2021/12/08 03:22:45;;;;;;;4.03;2.70;;;1.20;99.90;;;;;;6094654;23;20018;-78
2021/12/08 03:25:15;;;;;;;9.05;2.78;;;1.20;99.90;;;;;;6094933;23;20017;-77
2021/12/08 03:28:03;;;;;;;4.60;2.53;;;1.20;99.90;;;;;;6094462;23;20014;-77
2021/12/08 03:30:35;;;;;;;3.50;2.55;;;1.20;99.90;;;;;;6094592;23;20435;-77
2021/12/08 03:33:01;;;;;;;4.45;2.15;;;1.20;99.90;;;;;;6094644;23;20085;-77
2021/12/08 03:35:27;;;;;;;5.50;2.42;;;1.30;99.90;;;;;;6094851;23;20032;-77
2021/12/08 03:37:53;;;;;;;4.47;2.83;;;1.30;99.90;;;;;;6094788;23;20498;-77
2021/12/08 03:40:23;;;;;;;3.03;2.05;;;1.20;99.90;;;;;;6094756;23;20025;-77
2021/12/08 03:42:52;;;;;;;8.43;2.58;;;1.30;99.90;;;;;;6094195;23;20050;-77
2021/12/08 03:45:33;;;;;;;3.05;2.00;;;1.40;99.90;;;;;;6094792;23;20010;-77
2021/12/08 03:48:04;;;;;;;3.08;2.28;;;1.40;99.90;;;;;;6094598;23;20002;-77
2021/12/08 03:50:35;;;;;;;4.05;2.47;;;1.40;99.90;;;;;;6094719;23;20434;-77
2021/12/08 03:53:01;;;;;;;6.38;3.60;;;1.40;99.90;;;;;;6094567;23;20335;-77
2021/12/08 03:55:27;;;;;;;7.35;3.03;;;1.40;99.90;;;;;;6069134;23;20006;-76
2021/12/08 03:57:52;;;;;;;13.75;4.63;;;1.50;99.90;;;;;;6094254;23;20002;-76
2021/12/08 04:00:22;;;;;;;6.80;3.58;;;1.50;99.90;;;;;;6094595;23;20007;-76
2021/12/08 04:02:49;;;;;;;4.82;3.00;;;1.50;99.90;;;;;;6094359;23;20041;-77
2021/12/08 04:05:20;;;;;;;5.05;1.92;;;1.40;99.90;;;;;;6094723;23;20041;-76
2021/12/08 04:07:48;;;;;;;4.53;3.10;;;1.50;99.90;;;;;;6069006;23;20003;-76
2021/12/08 04:10:19;;;;;;;4.15;2.50;;;1.50;99.90;;;;;;6094412;23;20089;-77
2021/12/08 04:12:52;;;;;;;4.10;2.40;;;1.60;99.90;;;;;;6094424;23;20034;-77
2021/12/08 04:15:20;;;;;;;4.93;2.22;;;1.60;99.90;;;;;;6068808;23;20007;-77
2021/12/08 04:17:49;;;;;;;3.38;2.17;;;1.70;99.90;;;;;;6068857;23;20065;-77
2021/12/08 04:20:21;;;;;;;5.28;2.22;;;1.70;99.90;;;;;;6094567;23;20104;-77
2021/12/08 04:22:50;;;;;;;6.03;2.60;;;1.70;99.90;;;;;;6094303;23;20014;-77
2021/12/08 04:25:19;;;;;;;6.28;3.25;;;1.80;99.90;;;;;;6068902;23;20526;-77
2021/12/08 04:27:47;;;;;;;8.30;3.92;;;1.80;99.90;;;;;;6094266;23;20013;-77
2021/12/08 04:30:23;;;;;;;6.88;3.10;;;1.80;99.90;;;;;;6068972;23;20006;-75
2021/12/08 04:32:49;;;;;;;5.15;3.00;;;1.70;99.90;;;;;;6068365;23;20006;-75
2021/12/08 04:35:18;;;;;;;7.80;3.25;;;1.70;99.90;;;;;;6094438;23;20016;-75
2021/12/08 04:37:48;;;;;;;5.32;2.60;;;1.60;99.90;;;;;;6069906;23;20010;-75
2021/12/08 04:40:38;;;;;;;6.10;3.03;;;1.60;99.90;;;;;;6097867;23;20014;-75
2021/12/08 04:46:13;;;;;;;6.65;3.03;;;1.50;99.90;;;;;;6097803;23;20085;-77
2021/12/08 05:02:52;;;;;;;5.90;2.90;;;1.60;99.90;;;;;;6097459;23;20510;-75
2021/12/08 05:05:47;;;;;;;2.88;2.03;;;1.60;99.90;;;;;;6097010;23;20014;-75
2021/12/08 05:08:19;;;;;;;4.30;2.40;;;1.70;99.90;;;;;;6096642;23;20006;-75
2021/12/08 05:10:47;;;;;;;4.10;2.20;;;1.70;99.90;;;;;;6097726;23;20006;-78
2021/12/08 05:13:16;;;;;;;6.95;2.25;;;1.90;99.90;;;;;;6097378;23;20002;-75
2021/12/08 05:15:47;;;;;;;3.88;2.25;;;2.10;99.90;;;;;;6097332;23;20010;-75
2021/12/08 05:18:41;;;;;;;3.05;1.98;;;2.20;99.90;;;;;;6071242;23;20037;-75
2021/12/08 05:21:14;;;;;;;4.05;2.47;;;2.40;99.90;;;;;;6089052;23;20009;-75
2021/12/08 05:23:59;;;;;;;5.05;3.25;;;2.60;99.90;;;;;;6096795;23;20010;-75
2021/12/08 05:26:59;;;;;;;2.60;2.35;;;2.70;99.90;;;;;;6096869;23;20008;-75
2021/12/08 05:29:35;;;;;;;8.02;2.17;;;2.90;99.90;;;;;;6097652;23;20010;-75
2021/12/08 05:32:04;;;;;;;2.90;1.92;;;3.00;99.90;;;;;;6097492;23;19999;-76
2021/12/08 05:34:30;;;;;;;2.58;2.20;;;3.10;99.90;;;;;;6097449;23;20435;-76
2021/12/08 05:36:57;;;;;;;5.05;2.65;;;3.10;99.90;;;;;;6097495;23;20331;-76
2021/12/08 05:39:26;;;;;;;4.32;2.20;;;3.20;99.90;;;;;;6097452;23;20010;-76
2021/12/08 05:41:56;;;;;;;3.67;2.33;;;3.20;99.90;;;;;;6097324;23;20378;-76
2021/12/08 05:44:23;;;;;;;2.97;2.08;;;3.30;99.90;;;;;;6097258;23;20545;-76
2021/12/08 05:46:51;;;;;;;4.63;2.50;;;3.30;99.90;;;;;;6097558;23;20335;-76
2021/12/08 05:49:19;;;;;;;4.15;2.33;;;3.40;99.90;;;;;;6095007;23;20081;-77
2021/12/08 05:51:48;;;;;;;3.90;2.38;;;3.40;99.90;;;;;;6096214;23;20457;-76
2021/12/08 05:54:30;;;;;;;7.15;3.00;;;3.40;99.90;;;;;;6095410;23;20465;-76
2021/12/08 05:56:57;;;;;;;;;;;3.40;99.90;;;;;;6096382;23;20010;-75
2021/12/08 05:59:25;;;;;;;6.05;3.33;;;3.40;99.90;;;;;;6069865;23;20249;-75
2021/12/08 06:02:22;;;;;;;5.90;4.30;;;3.50;99.90;;;;;;6095263;23;19998;-75
2021/12/08 06:04:48;;;;;;;6.13;2.95;;;3.50;99.90;;;;;;6067107;23;20014;-74
2021/12/08 06:07:15;;;;;;;5.65;2.92;;;3.50;99.90;;;;;;6069701;23;20005;-74
2021/12/08 06:09:41;;;;;;;9.55;5.10;;;3.50;99.90;;;;;;6095452;23;20054;-75
2021/12/08 06:12:09;;;;;;;10.88;5.95;;;3.50;99.90;;;;;;6095128;23;20002;-74
2021/12/08 06:14:36;;;;;;;6.55;2.92;;;3.50;99.90;;;;;;6093478;23;19998;-74
2021/12/08 06:17:07;;;;;;;3.20;2.22;;;3.60;99.90;;;;;;6094175;23;20013;-75
2021/12/08 06:19:36;;;;;;;3.88;2.60;;;3.60;99.90;;;;;;6069019;23;20007;-75
2021/12/08 06:22:05;;;;;;;2.78;2.10;;;3.60;99.90;;;;;;6095368;23;20457;-75
2021/12/08 06:24:32;;;;;;;4.40;1.95;;;3.70;99.90;;;;;;6069838;23;20346;-75
2021/12/08 06:26:58;;;;;;;3.15;2.00;;;3.70;99.90;;;;;;6095422;23;20003;-75
2021/12/08 06:29:24;;;;;;;2.65;1.73;;;3.80;99.90;;;;;;6069842;23;20018;-75
2021/12/08 06:31:55;;;;;;;4.90;2.03;;;3.80;99.90;;;;;;6095451;23;19994;-75
2021/12/08 06:34:25;;;;;;;2.83;2.03;;;3.90;99.90;;;;;;6069770;23;20065;-75
2021/12/08 06:36:55;;;;;;;2.00;1.60;;;3.90;99.90;;;;;;6095389;23;20430;-75
2021/12/08 06:39:26;;;;;;;3.05;2.20;;;3.90;99.90;;;;;;6095130;23;20107;-76
2021/12/08 06:41:57;;;;;;;3.83;1.87;;;3.90;99.90;;;;;;6095005;23;20214;-76
2021/12/08 06:44:27;;;;;;;4.65;2.08;;;3.90;99.90;;;;;;6069415;23;20026;-76
2021/12/08 06:46:55;;;;;;;3.10;2.00;;;3.90;99.90;;;;;;6094952;23;20012;-75
2021/12/08 06:49:21;;;;;;;4.90;3.17;;;4.00;99.90;;;;;;6095295;23;20011;-76
2021/12/08 06:52:01;;;;;;;6.05;4.78;;;4.00;99.90;;;;;;6069477;23;20006;-75
2021/12/08 06:55:08;;;;;;;3.90;2.50;;;4.10;99.90;;;;;;6069523;23;20006;-75
2021/12/08 06:57:39;;;;;;;5.10;1.95;;;4.10;99.90;;;;;;6063698;23;20006;-75
2021/12/08 07:00:20;;;;;;;8.05;4.20;;;4.20;99.90;;;;;;6095252;23;20009;-76
2021/12/08 07:05:30;;;;;;;9.30;5.10;;;4.30;99.90;;;;;;6098348;23;20002;-76
2021/12/08 07:08:16;;;;;;;4.70;3.03;;;4.40;99.90;;;;;;6094620;23;20006;-76
2021/12/08 07:10:47;;;;;;;4.18;2.58;;;4.40;99.90;;;;;;6095465;23;20010;-76
2021/12/08 07:13:18;;;;;;;3.83;2.47;;;4.50;99.90;;;;;;6095436;23;20085;-76
2021/12/08 07:15:58;;;;;;;6.32;2.40;;;4.50;99.90;;;;;;6094634;23;19999;-76
2021/12/08 07:18:37;;;;;;;3.28;2.08;;;4.60;99.90;;;;;;6069120;23;20014;-77
2021/12/08 07:21:04;;;;;;;8.85;2.58;;;4.60;99.90;;;;;;6095302;23;19999;-77
2021/12/08 07:23:44;;;;;;;3.38;2.15;;;4.70;99.90;;;;;;6069345;23;20179;-77
2021/12/08 07:26:14;;;;;;;2.80;2.13;;;4.80;99.90;;;;;;6095105;23;19999;-77
2021/12/08 07:28:40;;;;;;;4.40;2.40;;;4.90;99.90;;;;;;6069329;23;20010;-79
2021/12/08 07:31:11;;;;;;;3.33;2.13;;;5.00;99.90;;;;;;6095021;23;20009;-78
2021/12/08 07:33:38;;;;;;;7.75;3.60;;;5.10;99.90;;;;;;6069365;23;20006;-78
2021/12/08 07:36:07;;;;;;;11.02;7.00;;;5.20;99.90;;;;;;6094912;23;19999;-78
2021/12/08 07:38:33;;;;;;;8.95;5.50;;;5.20;99.90;;;;;;6094977;23;20002;-76
2021/12/08 07:41:08;;;;;;;3.97;2.92;;;5.30;99.90;;;;;;6094790;23;20005;-78
2021/12/08 07:43:42;;;;;;;4.43;2.88;;;5.40;99.90;;;;;;6094431;23;20011;-78
2021/12/08 07:46:18;;;;;;;5.05;2.45;;;5.50;99.90;;;;;;6094956;23;20022;-78
2021/12/08 07:49:00;;;;;;;3.72;2.30;;;5.60;99.90;;;;;;6094704;23;20326;-78
2021/12/08 07:51:34;;;;;;;3.67;2.72;;;5.70;99.90;;;;;;6094752;23;20013;-77
2021/12/08 07:54:03;;;;;;;8.45;4.82;;;5.80;99.90;;;;;;6069241;23;20002;-78
2021/12/08 07:56:32;;;;;;;16.25;8.20;;;5.90;99.90;;;;;;6095117;23;20012;-77
2021/12/08 07:59:00;;;;;;;6.72;4.30;;;6.00;99.90;;;;;;6094969;23;19999;-78
2021/12/08 08:01:37;;;;;;;4.13;2.58;;;6.10;99.90;;;;;;6095035;23;20007;-79
2021/12/08 08:04:09;;;;;;;48.15;23.02;;;6.10;99.90;;;;;;6094430;23;20014;-77
2021/12/08 08:06:37;;;;;;;50.50;28.75;;;6.20;99.90;;;;;;6094403;23;19998;-78
2021/12/08 08:09:07;;;;;;;66.55;29.85;;;6.30;99.90;;;;;;6069226;23;20029;-76
2021/12/08 08:11:40;;;;;;;19.73;9.35;;;6.30;99.90;;;;;;6094783;23;19998;-77
2021/12/08 08:14:06;;;;;;;;;;;6.50;99.90;;;;;;6069379;23;20002;-77
2021/12/08 08:16:35;;;;;;;16.98;8.40;;;6.60;99.90;;;;;;6095198;23;19907;-77
2021/12/08 08:19:08;;;;;;;10.18;5.50;;;6.70;99.90;;;;;;6094264;23;20003;-76
2021/12/08 08:21:38;;;;;;;23.30;11.35;;;6.80;99.90;;;;;;6069178;23;20426;-76
2021/12/08 08:24:05;;;;;;;21.48;8.63;;;6.80;99.90;;;;;;6094502;23;20006;-78
2021/12/08 08:26:32;;;;;;;7.90;4.43;;;6.90;99.90;;;;;;6068025;23;20021;-78
2021/12/08 08:28:59;;;;;;;8.20;4.25;;;7.00;99.90;;;;;;6094508;23;20007;-83
2021/12/08 08:31:55;;;;;;;23.55;10.18;;;7.10;99.90;;;;;;6094382;23;20003;-82
2021/12/08 08:34:21;;;;;;;7.28;4.63;;;7.20;99.90;;;;;;6065293;23;20006;-81
2021/12/08 08:36:48;;;;;;;5.30;3.83;;;7.30;99.90;;;;;;6093174;23;20006;-79
2021/12/08 08:39:22;;;;;;;6.35;3.55;;;7.40;99.90;;;;;;6092337;23;20003;-81
2021/12/08 08:41:52;;;;;;;6.68;4.10;;;7.50;99.90;;;;;;6066498;23;20013;-79
2021/12/08 08:44:27;;;;;;;3.80;2.90;;;7.60;99.90;;;;;;6092573;23;20018;-83
2021/12/08 08:46:57;;;;;;;5.65;2.97;;;7.80;99.70;;;;;;6092948;23;20003;-81
2021/12/08 08:49:27;;;;;;;6.63;2.75;;;8.00;99.70;;;;;;6092862;23;20085;-81
2021/12/08 08:51:59;;;;;;;4.05;2.50;;;8.20;99.20;;;;;;6093585;23;20003;-80
2021/12/08 08:54:30;;;;;;;3.03;2.10;;;8.30;98.60;;;;;;6094523;23;20709;-80
2021/12/08 08:57:00;;;;;;;3.22;2.30;;;8.50;97.20;;;;;;6069047;23;20014;-80
2021/12/08 08:59:33;;;;;;;2.72;2.05;;;8.70;96.30;;;;;;6094880;23;20006;-82
2021/12/08 09:02:04;;;;;;;2.38;2.05;;;8.90;96.80;;;;;;6094437;23;20005;-81
2021/12/08 09:04:34;;;;;;;3.47;2.28;;;9.10;94.90;;;;;;6094400;23;20140;-80
2021/12/08 09:07:05;;;;;;;3.50;2.38;;;9.20;95.70;;;;;;6094603;23;19999;-78
2021/12/08 09:09:36;;;;;;;3.15;1.95;;;9.40;94.00;;;;;;6068886;23;19999;-81
2021/12/08 09:12:04;;;;;;;2.38;1.90;;;9.50;93.50;;;;;;6094188;23;20029;-78
2021/12/08 09:14:56;;;;;;;2.53;1.98;;;9.60;92.60;;;;;;6068789;23;20009;-80
2021/12/08 09:17:27;;;;;;;2.53;1.83;;;9.70;92.60;;;;;;6067137;23;20007;-79
2021/12/08 09:20:03;;;;;;;10.88;1.92;;;9.80;91.60;;;;;;6094275;23;20427;-80
2021/12/08 09:22:56;;;;;;;2.90;1.85;;;9.90;92.20;;;;;;6068424;23;20010;-80
2021/12/08 09:25:36;;;;;;;3.50;2.08;;;9.80;91.80;;;;;;6069906;23;20007;-80
2021/12/08 09:28:11;;;;;;;3.35;1.90;;;9.80;92.10;;;;;;6070672;23;20010;-80
2021/12/08 09:30:43;;;;;;;3.83;2.00;;;9.80;91.90;;;;;;6096023;23;20255;-81
2021/12/08 09:33:28;;;;;;;3.05;2.00;;;9.70;93.30;;;;;;6096076;23;20017;-82
2021/12/08 09:36:07;;;;;;;2.15;1.70;;;9.60;94.20;;;;;;6096259;23;20002;-81
2021/12/08 09:38:46;;;;;;;2.53;1.95;;;9.60;93.60;;;;;;6095876;23;20010;-81
2021/12/08 09:41:26;;;;;;;6.25;2.30;;;9.60;93.00;;;;;;6095791;23;20002;-78
2021/12/08 09:44:04;;;;;;;9.60;1.92;;;9.50;93.70;;;;;;6096172;23;20046;-80
2021/12/08 09:46:34;;;;;;;3.78;2.28;;;9.60;92.10;;;;;;6096448;23;20033;-81
2021/12/08 09:49:01;;;;;;;4.75;2.70;;;9.70;92.90;;;;;;6096492;23;20006;-83
2021/12/08 09:51:28;;;;;;;4.05;2.60;;;9.70;93.30;;;;;;6095873;23;20010;-81
2021/12/08 09:53:54;;;;;;;5.13;2.80;;;9.70;93.50;;;;;;6095751;23;20009;-78
2021/12/08 09:56:22;;;;;;;6.40;3.53;;;9.80;93.10;;;;;;6095913;23;20070;-76
2021/12/08 09:58:48;;;;;;;4.45;3.28;;;9.80;92.50;;;;;;6095733;23;20002;-77
2021/12/08 10:01:18;;;;;;;6.35;3.17;;;10.00;93.60;;;;;;6095951;23;20339;-77
2021/12/08 10:03:45;;;;;;;4.20;2.95;;;10.00;94.40;;;;;;6070032;23;20085;-76
2021/12/08 10:06:12;;;;;;;4.88;3.03;;;10.00;94.90;;;;;;6095661;23;20006;-79
2021/12/08 10:08:40;;;;;;;4.80;3.20;;;10.00;94.90;;;;;;6070367;23;20017;-78
2021/12/08 10:11:06;;;;;;;5.40;3.08;;;10.00;93.10;;;;;;6070063;23;20010;-77
2021/12/08 10:13:31;;;;;;;4.50;3.40;;;10.00;93.30;;;;;;6095510;23;20007;-77
2021/12/08 10:15:57;;;;;;;11.13;4.63;;;10.00;93.10;;;;;;6095664;23;20181;-77
2021/12/08 10:18:23;;;;;;;4.47;3.50;;;10.00;94.50;;;;;;6095695;23;20005;-77
2021/12/08 10:20:54;;;;;;;12.48;7.22;;;10.00;93.30;;;;;;6070041;23;19999;-77
2021/12/08 10:23:30;;;;;;;18.90;9.40;;;9.90;92.00;;;;;;6095214;23;20355;-77
2021/12/08 10:26:09;;;;;;;7.05;4.03;;;9.80;94.10;;;;;;6095528;23;20034;-77
2021/12/08 10:29:06;;;;;;;23.80;14.88;;;9.70;92.80;;;;;;6095521;23;20053;-76
2021/12/08 10:31:41;;;;;;;4.40;2.65;;;9.60;92.70;;;;;;6066535;23;20093;-77
2021/12/08 10:36:54;;;;;;;11.38;5.32;;;9.80;92.80;;;;;;6097735;23;20024;-80
2021/12/08 10:39:29;;;;;;;30.23;17.23;;;10.20;91.60;;;;;;6095464;23;20026;-76
2021/12/08 10:42:23;;;;;;;6.63;4.57;;;10.70;92.00;;;;;;6095112;23;20030;-78
2021/12/08 10:44:56;;;;;;;8.15;5.68;;;11.10;91.60;;;;;;6095512;23;20021;-78
2021/12/08 10:47:41;;;;;;;16.33;9.77;;;11.50;91.40;;;;;;6069753;23;20097;-77
2021/12/08 10:56:12;;;;;;;15.55;9.00;;;11.70;90.90;;;;;;6095493;23;20009;-78
2021/12/08 10:58:43;;;;;;;8.27;3.92;;;11.50;91.00;;;;;;6095470;23;20003;-78
2021/12/08 11:01:16;;;;;;;9.05;3.25;;;11.30;91.70;;;;;;6095294;23;20099;-78
2021/12/08 11:03:43;;;;;;;3.83;2.47;;;11.10;91.50;;;;;;6095080;23;20022;-78
2021/12/08 11:06:12;;;;;;;5.15;4.05;;;11.10;91.70;;;;;;6095317;23;20510;-79
2021/12/08 11:08:41;;;;;;;7.32;5.32;;;11.00;91.80;;;;;;6095447;23;20002;-79
2021/12/08 11:11:20;;;;;;;6.35;3.72;;;11.10;92.20;;;;;;6095227;23;20006;-78
2021/12/08 11:13:52;;;;;;;11.18;6.55;;;11.10;91.30;;;;;;6095128;23;20009;-78
2021/12/08 11:16:24;;;;;;;8.50;5.40;;;11.30;92.50;;;;;;6095136;23;20003;-77
2021/12/08 11:19:06;;;;;;;5.25;3.92;;;11.50;91.80;;;;;;6069400;23;19998;-78
2021/12/08 11:21:37;;;;;;;4.10;2.70;;;11.60;91.00;;;;;;6095038;23;20010;-78
2021/12/08 11:24:33;;;;;;;7.25;4.00;;;11.50;91.30;;;;;;6094752;23;20014;-77
2021/12/08 11:27:02;;;;;;;3.38;2.28;;;11.50;91.40;;;;;;6095076;23;20419;-78
2021/12/08 11:29:31;;;;;;;20.70;10.15;;;11.40;91.50;;;;;;6095133;23;20038;-78
2021/12/08 11:32:09;;;;;;;3.97;2.42;;;11.40;90.80;;;;;;6094731;23;20002;-78
2021/12/08 11:34:38;;;;;;;5.00;2.08;;;11.40;90.80;;;;;;6094768;23;20006;-78
2021/12/08 11:37:07;;;;;;;2.83;2.00;;;11.60;91.30;;;;;;6094778;23;20009;-79
2021/12/08 11:39:35;;;;;;;18.27;6.78;;;11.60;91.70;;;;;;6094962;23;20100;-79
2021/12/08 11:42:08;;;;;;;6.57;3.92;;;11.60;91.10;;;;;;6094196;23;20430;-77
2021/12/08 11:44:37;;;;;;;8.70;4.80;;;11.40;90.40;;;;;;6094865;23;20090;-78
2021/12/08 11:47:14;;;;;;;11.82;7.25;;;11.20;90.80;;;;;;6094302;23;19999;-78
2021/12/08 11:49:44;;;;;;;8.18;4.90;;;11.10;91.70;;;;;;6094615;23;20006;-79
2021/12/08 11:52:13;;;;;;;6.63;4.97;;;10.90;92.10;;;;;;6094549;23;19999;-79
2021/12/08 11:54:48;;;;;;;6.70;3.67;;;11.00;92.90;;;;;;6069314;23;20081;-79
2021/12/08 11:57:19;;;;;;;3.67;2.22;;;11.10;92.30;;;;;;6069077;23;20094;-78
2021/12/08 11:59:49;;;;;;;14.32;5.90;;;11.20;93.20;;;;;;6094919;23;20007;-78
2021/12/08 12:02:18;;;;;;;102.30;34.13;;;11.50;92.10;;;;;;6094599;23;20427;-79
2021/12/08 12:04:44;;;;;;;6.00;3.75;;;11.50;92.10;;;;;;6094382;23;20510;-77
2021/12/08 12:07:12;;;;;;;3.55;1.58;;;11.60;92.30;;;;;;6094408;23;20010;-78
2021/12/08 12:09:39;;;;;;;4.93;1.50;;;11.50;92.10;;;;;;6094813;23;20090;-81
2021/12/08 12:12:05;;;;;;;6.43;4.90;;;11.40;92.00;;;;;;6096503;23;20033;-83
2021/12/08 12:14:31;;;;;;;7.32;3.80;;;11.30;93.80;;;;;;6072489;23;20375;-81
2021/12/08 12:16:57;;;;;;;11.13;4.97;;;11.40;92.40;;;;;;6101602;23;20267;-80
2021/12/08 12:19:25;;;;;;;440.35;236.38;;;11.40;93.20;;;;;;6094963;23;19998;-79
2021/12/08 12:22:35;;;;;;;222.25;81.53;;;11.40;93.50;;;;;;6095806;23;20002;-80
2021/12/08 12:25:24;;;;;;;24.20;12.57;;;11.40;94.90;;;;;;5950896;24;20083;-82
2021/12/08 12:28:34;;;;;;;24.15;13.13;;;11.30;94.30;;;;;;6096727;23;20053;-79
2021/12/08 12:31:06;;;;;;;18.10;10.32;;;11.10;96.60;;;;;;6018966;23;20034;-81
2021/12/08 12:33:41;;;;;;;15.70;8.52;;;10.90;96.40;;;;;;6071986;23;20058;-83
2021/12/08 12:36:25;;;;;;;14.05;5.63;;;10.90;97.00;;;;;;6099709;23;20078;-81
2021/12/08 12:39:23;;;;;;;12.10;8.48;;;10.80;97.50;;;;;;6103883;23;20199;-81
2021/12/08 12:42:15;;;;;;;322.55;141.23;;;10.80;97.10;;;;;;6072998;23;20013;-79
2021/12/08 12:44:57;;;;;;;28.80;15.30;;;10.90;97.20;;;;;;6097305;23;20015;-84
2021/12/08 12:47:26;;;;;;;6.90;2.58;;;10.70;99.90;;;;;;6072204;23;20251;-83
2021/12/08 12:50:09;;;;;;;34.47;15.93;;;10.60;99.10;;;;;;6095377;23;20064;-81
2021/12/08 12:52:38;;;;;;;33.85;14.70;;;10.50;99.90;;;;;;6094661;23;20083;-81
2021/12/08 12:55:27;;;;;;;3.22;2.00;;;10.50;99.90;;;;;;6069132;23;20017;-79
2021/12/08 12:58:01;;;;;;;2.78;2.10;;;10.50;99.70;;;;;;6075741;23;20010;-78
2021/12/08 13:00:31;;;;;;;5.97;1.80;;;10.40;99.90;;;;;;6070832;23;20006;-81
2021/12/08 13:02:57;;;;;;;4.30;1.60;;;10.40;98.20;;;;;;6096549;23;20014;-79
2021/12/08 13:05:43;;;;;;;5.55;3.42;;;10.30;99.00;;;;;;6071219;23;20003;-80
2021/12/08 13:08:09;;;;;;;12.27;4.70;;;10.20;99.60;;;;;;6096613;23;20087;-80
2021/12/08 13:10:39;;;;;;;14.40;5.53;;;10.20;99.90;;;;;;6096707;23;19998;-78
2021/12/08 13:13:14;;;;;;;19.77;9.30;;;10.10;99.90;;;;;;6096334;23;20322;-81
2021/12/08 13:15:44;;;;;;;19.48;8.77;;;10.10;99.90;;;;;;6096532;23;20081;-81
2021/12/08 13:18:12;;;;;;;15.55;5.50;;;10.00;99.90;;;;;;6096521;23;20006;-78
2021/12/08 13:20:50;;;;;;;21.17;11.82;;;10.00;99.90;;;;;;6096087;23;19999;-77
2021/12/08 13:23:21;;;;;;;21.52;9.68;;;10.00;99.90;;;;;;6070608;23;20022;-79
2021/12/08 13:28:35;;;;;;;10.52;4.65;;;9.90;99.90;;;;;;6097317;23;20045;-79
2021/12/08 13:31:11;;;;;;;22.80;9.23;;;10.00;99.90;;;;;;6070570;23;20003;-79
2021/12/08 13:33:39;;;;;;;17.15;8.25;;;10.00;99.90;;;;;;6095958;23;20081;-79
2021/12/08 13:36:20;;;;;;;24.30;11.45;;;10.00;99.90;;;;;;6096476;23;20486;-77
2021/12/08 13:39:06;;;;;;;26.73;11.32;;;10.00;99.90;;;;;;6096076;23;20010;-79
2021/12/08 13:41:35;;;;;;;16.30;8.80;;;10.00;99.90;;;;;;6070702;23;20006;-77
2021/12/08 13:44:23;;;;;;;20.58;10.95;;;10.00;99.90;;;;;;6095807;23;20018;-79
2021/12/08 13:46:52;;;;;;;15.43;7.75;;;10.00;99.90;;;;;;6070428;23;20086;-77
2021/12/08 13:49:28;;;;;;;4.28;1.80;;;10.00;99.90;;;;;;6095691;23;20002;-78
2021/12/08 13:52:06;;;;;;;6.68;3.78;;;10.00;99.90;;;;;;6095619;23;20081;-78
2021/12/08 13:54:35;;;;;;;5.07;3.40;;;10.00;99.90;;;;;;6095903;23;20013;-77
2021/12/08 13:57:04;;;;;;;21.88;13.25;;;9.90;99.90;;;;;;6095988;23;20130;-76
2021/12/08 13:59:47;;;;;;;15.35;7.85;;;9.80;99.90;;;;;;6096023;23;20006;-78
2021/12/08 14:02:30;;;;;;;6.63;4.40;;;9.70;99.90;;;;;;6095636;23;20337;-78
2021/12/08 14:05:21;;;;;;;7.57;3.67;;;9.60;99.90;;;;;;6095737;23;20002;-80
2021/12/08 14:07:55;;;;;;;4.95;2.83;;;9.40;99.90;;;;;;6094594;23;20002;-79
2021/12/08 14:10:44;;;;;;;7.40;4.32;;;9.20;99.90;;;;;;6095549;23;20002;-79